Iron Mountain, MI

12:15 PM CST on November 28, 2014 (GMT -0600)
Delta County | Change Station
CLOSE
Current Station
Airport
Location: Escanaba,
Elevation: 607 ft
Nearby Weather Stations
Active Advisory: Special Statement Active Notice: Record Report

Elev 607 ft 45.72 °N, 87.09 °W | Updated 20 minutes ago

Snow
Snow
18 °F
Feels Like 8 °F
N
7
Wind Variable Wind from SW

Today
High -- | Low -- °F
--% Chance of Precip.
Yesterday
High -- | Low -- °F
Precip. -- in
7:09 AM 4:10 PM
Waxing Crescent, 42% visible
Pressure 30.11 in
Visibility 10.0 miles
Clouds Scattered Clouds 3900 ft
Mostly Cloudy 4500 ft
Overcast 5000 ft
Windchill 8 °F
Dew Point 7 °F
Humidity 63%
Rainfall 0.00 in
Snow Depth Not available.
UV 1 out of 12
Pollen .10 out of 12
Air Quality Not available.
Flu Activity Not available.
METAR KESC 281755Z AUTO 22006KT 10SM SCT039 BKN045 OVC050 M08/M14 A3011 RMK AO1 11080 21140 57027

More Conditions Fewer Conditions

Pressure 30.11 in
Visibility 10.0 miles
Clouds Scattered Clouds 3900 ft
Mostly Cloudy 4500 ft
Overcast 5000 ft
Windchill 8 °F
Dew Point 7 °F
Humidity 63%
Rainfall 0.00 in
Snow Depth Not available.
UV 1 out of 12
Pollen .10 out of 12
Air Quality Not available.
Flu Activity Not available.
METAR KESC 281755Z AUTO 22006KT 10SM SCT039 BKN045 OVC050 M08/M14 A3011 RMK AO1 11080 21140 57027

More Conditions Fewer Conditions

10-Day Weather Forecast

Almanac

Astronomy

Nov. 28, 2014 Rise Set
Actual Time
Civil Twilight
Nautical Twilight
Astronomical Twilight
Moon
Length of Visible Light
Length of Day
Tomorrow will be .
, % of the Moon is Illuminated

Today's Extremes

State Highs State Lows

Community

WunderPhotos

Upload Photos

1,774,249 photos uploaded!

WunderBlogs® & News

Nearby

Air Quality

  Air Quality AQ Index Pollutant
Not available.

Snow Depth

Station Depth Elevation

Earthquake Activity

City Distance Mag. Time & Date
Minimum magnitude displayed is 2.5.

Coastal Water Temperatures

Place Temperature

Nearby Weather Stations